Unicom:                    122.8

AWOS:                  118.275

Elevation           1458’ MSL

TPA:                   2500’ MSL

06/24:         5003’ L   75’ W

PAPI:       06/Left     24/Left

(Operate lights on unicom freq.)

Traffic Pattern: Left

Beacon: Sunset to Sunrise

Windsock: yes, lighted

Segmented Circle: No

 

Cleveland Center: 126.72/291.65

FSS: Altoona

[Source: ADDS]
METAR
KFKL 271056Z AUTO 24011KT 10SM OVC006 09/09 A2983 RMK AO2 SLP106 T00890089 =
KFKL 271120Z 2712/2812 24007KT P6SM OVC006 FM271400 25010KT P6SM VCSH BKN010 FM271600 26010G20KT P6SM -SHRA OVC020 FM271900 27009G19KT P6SM -SHRA SCT025 BKN035 TEMPO 2719/2723 5SM -SHRA BKN025 FM280500 24005KT P6SM BKN020 FM281000 27004KT P6SM -SHRA OVC006
TAF
KFKL 271120Z 2712/2812 24007KT P6SM OVC006 FM271400 25010KT P6SM VCSH BKN010 FM271600 26010G20KT P6SM -SHRA OVC020 FM271900 27009G19KT P6SM -SHRA SCT025 BKN035 TEMPO 2719/2723 5SM -SHRA BKN025 FM280500 24005KT P6SM BKN020 FM281000 27004KT P6SM -SHRA OVC006 =
[Source: ADDS]
METAR
KDUJ 271053Z AUTO 23010KT 10SM OVC008 09/07 A2981 RMK AO2 SLP096 T00940072 =
KDUJ 271120Z 2712/2812 25010KT P6SM OVC009 FM271500 25010G20KT P6SM BKN020 FM271900 26010G20KT P6SM -SHRA SCT020 BKN035 TEMPO 2719/2723 5SM -SHRA BKN025 FM280000 26008KT P6SM BKN035 FM280800 25006KT P6SM OVC008
TAF
KDUJ 271120Z 2712/2812 25010KT P6SM OVC009 FM271500 25010G20KT P6SM BKN020 FM271900 26010G20KT P6SM -SHRA SCT020 BKN035 TEMPO 2719/2723 5SM -SHRA BKN025 FM280000 26008KT P6SM BKN035 FM280800 25006KT P6SM OVC008 =

Welcome to Clarion County Airport.

We look forward to serving all of your aviation needs.


Clarion County Airport is a General Aviation, Business Class airport serving the Clarion County Area in Central Western Pennsylvania.  Our 5,003' asphalt runway and gps approaches are capable of serving most of the general aviation fleet in most weather conditions.


If you are planning a fuel stop while flying in Western Pennsylvania, consider paying us a visit. Our prices are some of the lowest in the state Check prices here ----> www.airnav.com/fuel and enter identifier KAXQ or see current prices below. We can have you fueled and taxiing out to the runway in about 10 minutes. Our current hours of operation are Monday- Sunday 8:00AM-4:00PM. Holiday closures are Christmas Day and Thanksgiving. If you require use of the facilities during the holidays or after hours please call ahead and someone will be there to assist you.


- Airport Manager -  


                             CURRENT FUEL PRICES       JET-A w/additive    $5.90           100LL     $6.43 


                              Self Service fueling available 24/7, credit card reader enabled. Center point fueling available upon request.

                                                           For after hours fueling assistance please contact 814-221-1048